• Join FlightAware (Why Join?)
  • Login
  • US Flag 
10:28AM EDT


 

Airport Tracker/Info


-or-


 

Live Flight TrackerFlight Track Log ✈ N904RB ✈ 05-May-2013 ✈ KTYR - KCOU

Flight Track Log - Related Links

Times and Time Zones

All times are in EDT time to prevent confusion due to time zone crossing. See the N904RB flight status page for this flight to view local times or setup timezone preferences in your user account.

Time Position Orientation Groundspeed Altitude Reporting Facility
EDT Latitude Longitude Course Direction KTS MPH feet Rate Location/Type
06:32PM 32.4831 -95.3889 22° Northeast 154 177 5,000  Level Fort Worth Center
06:33PM 32.5267 -95.3683 22° Northeast 154 177 6,000 960 Climbing Fort Worth Center
06:34PM 32.5681 -95.3478 23° Northeast 154 177 7,000 960 Climbing Fort Worth Center
06:35PM 32.6031 -95.3222 32° Northeast 148 170 8,000 960 Climbing Fort Worth Center
06:36PM 32.6444 -95.3014 23° Northeast 153 176 9,000 960 Climbing Fort Worth Center
06:37PM 32.6817 -95.2736 32° Northeast 153 176 10,000 900 Climbing Fort Worth Center
06:38PM 32.7228 -95.2453 30° Northeast 153 176 10,900 900 Climbing Fort Worth Center
06:40PM 32.7992 -95.1842 34° Northeast 159 183 12,700 840 Climbing Fort Worth Center
06:41PM 32.8383 -95.1611 26° Northeast 159 183 13,500 780 Climbing Fort Worth Center
06:42PM 32.8797 -95.1450 18° North 154 177 14,300 720 Climbing Fort Worth Center
06:43PM 32.9231 -95.1217 24° Northeast 154 177 15,000 720 Climbing Fort Worth Center
06:44PM 32.9686 -95.1008 21° North 165 190 15,800 840 Climbing Fort Worth Center
06:45PM 33.0142 -95.0797 21° North 165 190 16,700 900 Climbing Fort Worth Center
06:46PM 33.0578 -95.0661 15° North 165 190 17,600 660 Climbing Fort Worth Center
06:47PM 33.1056 -95.0475 18° North 165 190 18,100 600 Climbing Fort Worth Center
06:48PM 33.1489 -95.0267 22° Northeast 165 190 18,900 720 Climbing Fort Worth Center
06:49PM 33.1944 -95.0081 19° North 165 190 19,600 660 Climbing Fort Worth Center
06:50PM 33.2358 -94.9894 21° North 165 190 20,300 600 Climbing Fort Worth Center
06:51PM 33.2794 -94.9708 20° North 165 190 20,900 300 Climbing Fort Worth Center
06:52PM 33.3250 -94.9522 19° North 165 190 21,000  Climbing Fort Worth Center
06:53PM 33.3744 -94.9286 22° Northeast 170 196 21,000  Level Fort Worth Center
06:54PM 33.4244 -94.9122 15° North 175 201 21,000  Level Fort Worth Center
06:55PM 33.4783 -94.8958 14° North 185 213 21,000  Level Fort Worth Center
06:56PM 33.5297 -94.8667 25° Northeast 190 219 21,000  Level Fort Worth Center
06:57PM 33.5794 -94.8431 22° Northeast 190 219 21,000  Level Fort Worth Center
06:59PM 33.6850 -94.7950 21° North 190 219 21,000  Level Fort Worth Center
07:00PM 33.7344 -94.7661 26° Northeast 190 219 21,000  Level Fort Worth Center
07:01PM 33.7861 -94.7394 23° Northeast 190 219 21,000  Level Fort Worth Center
07:02PM 33.8397 -94.7128 22° Northeast 190 219 21,000  Level Fort Worth Center
07:03PM 33.8850 -94.6889 24° Northeast 190 219 21,000  Level Fort Worth Center
07:04PM 33.9367 -94.6647 21° North 190 219 21,000  Level Fort Worth Center
07:05PM 33.9906 -94.6431 18° North 190 219 21,000  Level Fort Worth Center
07:06PM 34.0442 -94.6211 19° North 190 219 21,000  Level Fort Worth Center
07:07PM 34.0981 -94.5994 18° North 190 219 21,000  Level Fort Worth Center
07:09PM 34.2300 -94.5400 20° North 194 223 21,000  Level Memphis Center
07:10PM 34.2808 -94.5172 20° North 194 223 21,000  Level Memphis Center
07:11PM 34.3339 -94.4872 25° Northeast 194 223 21,000  Level Memphis Center
07:12PM 34.3869 -94.4619 21° North 194 223 21,000  Level Memphis Center
07:13PM 34.4400 -94.4344 23° Northeast 194 223 21,000  Level Memphis Center
07:14PM 34.4953 -94.4067 22° Northeast 200 230 21,000  Level Memphis Center
07:15PM 34.5481 -94.3839 20° North 200 230 21,000  Level Memphis Center
07:17PM 34.6564 -94.3261 24° Northeast 200 230 21,000  Level Memphis Center
07:18PM 34.7094 -94.2956 25° Northeast 205 236 21,000  Level Memphis Center
07:19PM 34.7625 -94.2728 19° North 205 236 21,000  Level Memphis Center
07:20PM 34.8172 -94.2500 19° North 200 230 21,000  Level Memphis Center
07:21PM 34.8725 -94.2222 22° Northeast 200 230 21,000  Level Memphis Center
07:22PM 34.9233 -94.1992 20° North 200 230 21,000  Level Memphis Center
07:23PM 34.9803 -94.1764 18° North 200 230 21,000  Level Memphis Center
07:24PM 35.0331 -94.1508 22° Northeast 205 236 21,000  Level Memphis Center
07:25PM 35.0861 -94.1281 19° North 205 236 21,000  Level Memphis Center
07:26PM 35.1411 -94.1025 21° North 205 236 21,000  Level Memphis Center
07:27PM 35.1958 -94.0822 17° North 205 236 21,000  Level Memphis Center
07:28PM 35.2508 -94.0592 19° North 205 236 21,000  Level Memphis Center
07:29PM 35.3017 -94.0283 26° Northeast 205 236 21,000  Level Memphis Center
07:30PM 35.3550 -93.9950 27° Northeast 205 236 21,000  Level Memphis Center
07:31PM 35.4078 -93.9667 24° Northeast 205 236 21,000  Level Memphis Center
07:32PM 35.4628 -93.9386 23° Northeast 205 236 21,000  Level Memphis Center
07:33PM 35.5158 -93.9100 24° Northeast 205 236 21,000  Level Memphis Center
07:34PM 35.5708 -93.8794 24° Northeast 205 236 21,000  Level Memphis Center
07:35PM 35.6281 -93.8536 20° North 205 236 21,000  Level Memphis Center
07:36PM 35.6808 -93.8303 20° North 210 242 21,000  Level Memphis Center
07:38PM 35.7883 -93.7836 19° North 210 242 21,000  Level Memphis Center
07:39PM 35.8456 -93.7578 20° North 210 242 21,000  Level Memphis Center
07:40PM 35.9025 -93.7319 20° North 210 242 21,000  Level Memphis Center
07:41PM 35.9553 -93.7033 24° Northeast 210 242 21,000  Level Memphis Center
07:43PM 36.0536 -93.6525 23° Northeast 212 244 21,000  Level Kansas City Center
07:44PM 36.1069 -93.6256 22° Northeast 210 242 21,000  Level Kansas City Center
07:46PM 36.2133 -93.5700 23° Northeast 208 239 21,000  Level Kansas City Center
07:47PM 36.2775 -93.5347 24° Northeast 208 239 21,000  Level Kansas City Center
07:48PM 36.3311 -93.5075 22° Northeast 209 241 21,000  Level Kansas City Center
07:49PM 36.3853 -93.4794 23° Northeast 211 243 21,000  Level Kansas City Center
07:50PM 36.4403 -93.4592 17° North 207 238 21,000  Level Kansas City Center
07:51PM 36.4950 -93.4392 16° North 206 237 21,000  Level Kansas City Center
07:53PM 36.5618 -93.3993 26° Northeast  Level FlightAware Approximate
07:53PM 36.6031 -93.3822 26° Northeast 210 242 21,000  Level Kansas City Center
07:54PM 36.6658 -93.3475 24° Northeast 207 238 21,000  Level Kansas City Center
07:55PM 36.7175 -93.3175 25° Northeast 206 237 21,000  Level Kansas City Center
07:56PM 36.7700 -93.2900 23° Northeast 204 235 21,000  Level Kansas City Center
07:57PM 36.8217 -93.2592 26° Northeast 205 236 21,000  Level Kansas City Center
07:58PM 36.8731 -93.2306 24° Northeast 207 238 21,000  Level Kansas City Center
07:59PM 36.9358 -93.1933 25° Northeast 207 238 21,000  Level Kansas City Center
08:00PM 36.9906 -93.1700 19° North 207 238 21,000  Level Kansas City Center
08:01PM 37.0433 -93.1422 23° Northeast 206 237 21,000  Level Kansas City Center
08:03PM 37.0978 -93.1208 17° North 205 236 21,000  Level Kansas City Center
08:04PM 37.1519 -93.0953 21° North 206 237 21,000  Level Kansas City Center
08:05PM 37.2056 -93.0714 20° North 205 236 21,000  Level Kansas City Center
08:06PM 37.2589 -93.0467 20° North 205 236 21,000  Level Kansas City Center
08:07PM 37.3122 -93.0217 20° North 204 235 21,000  Level Kansas City Center
08:08PM 37.3761 -92.9894 22° Northeast 204 235 21,000  Level Kansas City Center
08:09PM 37.4278 -92.9589 25° Northeast 204 235 21,000  Level Kansas City Center
08:10PM 37.4786 -92.9253 28° Northeast 205 236 21,000  Level Kansas City Center
08:11PM 37.5306 -92.8967 24° Northeast 203 234 21,000  Level Kansas City Center
08:12PM 37.5842 -92.8669 24° Northeast 207 238 21,000  Level Kansas City Center
08:13PM 37.6372 -92.8389 23° Northeast 206 237 21,000  Level Kansas City Center
08:14PM 37.6908 -92.8150 19° North 204 235 21,000 -300 Level Kansas City Center
08:15PM 37.7458 -92.7881 21° North 208 239 20,500 -720 Descending Kansas City Center
08:16PM 37.8028 -92.7550 25° Northeast 219 252 19,600 -960 Descending Kansas City Center
08:17PM 37.8650 -92.7236 22° Northeast 221 254 18,600 -840 Descending Kansas City Center
08:18PM 37.9206 -92.6947 22° Northeast 218 251 17,900 -780 Descending Kansas City Center
08:19PM 37.9756 -92.6669 22° Northeast 214 246 17,100 -840 Descending Kansas City Center
08:20PM 38.0317 -92.6431 19° North 213 245 16,300 -780 Descending Kansas City Center
08:21PM 38.0814 -92.6039 32° Northeast 211 243 15,500 -840 Descending Kansas City Center
08:22PM 38.1358 -92.5547 35° Northeast 205 236 14,600 -840 Descending Kansas City Center
08:23PM 38.1844 -92.5436 10° North 179 206 13,900 -840 Descending Kansas City Center
08:24PM 38.2278 -92.5236 20° North 171 197 12,900 -1,080 Descending Kansas City Center
08:25PM 38.2728 -92.4958 26° Northeast 173 199 11,700 -1,140 Descending Kansas City Center
08:26PM 38.3192 -92.4631 29° Northeast 180 207 10,600 -1,020 Descending Kansas City Center
08:27PM 38.3653 -92.4311 29° Northeast 185 213 9,700 -780 Descending Kansas City Center
08:28PM 38.4136 -92.4172 13° North 179 206 9,100 -960 Descending Kansas City Center
08:29PM 38.4675 -92.3986 15° North 168 193 7,800 -1,200 Descending Kansas City Center
08:30PM 38.5122 -92.3683 28° Northeast 177 204 6,700 -1,080 Descending Kansas City Center
08:31PM 38.5558 -92.3444 23° Northeast 173 199 5,700 -840 Descending Kansas City Center
08:32PM 38.5978 -92.3322 13° North 159 183 5,000 -780 Descending Kansas City Center
08:33PM 38.6378 -92.3014 31° Northeast 163 188 4,100 -840 Descending Kansas City Center
08:34PM 38.6800 -92.2878 14° North 161 185 3,400 -720 Descending Kansas City Center
08:35PM 38.7169 -92.2686 22° Northeast 152 175 2,700 -720 Descending Kansas City Center
08:36PM 38.7508 -92.2506 23° Northeast 141 162 2,000 -660 Descending Kansas City Center
08:37PM 38.7864 -92.2317 22° Northeast 126 145 1,400 -480 Descending Kansas City Center
08:38PM 38.8083 -92.2211 21° North 117 135 1,100 -300 Descending Kansas City Center
08:40PM 38.8167 -92.2167 15° North  Level FlightAware Approximate